Time;durP1;ratioP1;P1;durP2;ratioP2;P2;SDS_P1;SDS_P2;PMS_P1;PMS_P2;Temp;Humidity;BMP_temperature;BMP_pressure;BME280_temperature;BME280_humidity;BME280_pressure;Samples;Min_cycle;Max_cycle;Signal;HPM_P1;HPM_P2
2022/01/06 00:01:43;;;;;;;17.73;3.50;;;3.60;99.90;;;;;;4998606;28;20067;-82
2022/01/06 00:04:09;;;;;;;14.48;3.22;;;3.50;99.90;;;;;;4966244;28;20527;-82
2022/01/06 00:06:40;;;;;;;17.52;2.95;;;3.50;99.90;;;;;;4982287;28;20042;-82
2022/01/06 00:09:08;;;;;;;14.75;2.83;;;3.50;99.90;;;;;;5004031;28;20084;-82
2022/01/06 00:11:34;;;;;;;19.58;2.70;;;4.20;99.90;;;;;;5001131;28;20474;-82
2022/01/06 00:14:17;;;;;;;14.20;2.72;;;3.40;99.90;;;;;;5018231;28;20095;-82
2022/01/06 00:24:49;;;;;;;17.67;2.58;;;3.30;99.90;;;;;;5018257;28;20045;-82
2022/01/06 00:27:15;;;;;;;15.32;2.60;;;3.20;99.90;;;;;;5000904;28;20045;-82
2022/01/06 00:29:41;;;;;;;14.43;2.60;;;3.20;99.90;;;;;;5001435;28;20084;-82
2022/01/06 00:32:08;;;;;;;13.82;2.78;;;3.10;99.90;;;;;;5001429;28;20056;-82
2022/01/06 00:34:33;;;;;;;15.55;2.80;;;3.10;99.90;;;;;;5001346;28;20042;-82
2022/01/06 00:37:01;;;;;;;16.75;2.92;;;3.20;99.90;;;;;;5001243;28;20434;-82
2022/01/06 00:39:28;;;;;;;14.02;2.55;;;3.00;99.90;;;;;;4985578;28;20045;-82
2022/01/06 00:41:58;;;;;;;16.10;2.60;;;3.10;99.90;;;;;;4984778;28;20076;-82
2022/01/06 00:44:24;;;;;;;16.77;2.67;;;3.00;99.90;;;;;;5017468;28;20037;-82
2022/01/06 00:46:51;;;;;;;17.90;3.03;;;3.00;99.90;;;;;;5016350;28;20049;-82
2022/01/06 00:49:17;;;;;;;14.70;2.97;;;3.00;99.90;;;;;;5000942;28;20033;-82
2022/01/06 00:51:43;;;;;;;19.15;3.20;;;3.00;99.90;;;;;;5000797;28;20120;-82
2022/01/06 00:54:10;;;;;;;15.68;2.70;;;2.90;99.90;;;;;;4985422;28;20384;-83
2022/01/06 00:56:36;;;;;;;14.57;3.17;;;2.90;99.90;;;;;;5016280;28;20129;-83
2022/01/06 00:59:01;;;;;;;20.98;3.75;;;3.00;99.90;;;;;;5001154;28;20124;-83
2022/01/06 01:01:27;;;;;;;14.75;3.40;;;2.90;99.90;;;;;;4968925;28;20187;-83
2022/01/06 01:03:53;;;;;;;15.30;2.80;;;2.90;99.90;;;;;;5001194;28;20128;-83
2022/01/06 01:06:19;;;;;;;18.15;3.03;;;3.00;99.90;;;;;;4984789;28;20077;-83
2022/01/06 01:08:45;;;;;;;21.05;2.75;;;3.30;99.90;;;;;;5017331;28;20033;-83
2022/01/06 01:11:10;;;;;;;20.10;2.95;;;3.20;99.90;;;;;;4983651;28;20042;-83
2022/01/06 01:14:07;;;;;;;14.68;2.58;;;3.30;99.90;;;;;;4968366;28;20045;-82
2022/01/06 01:16:31;;;;;;;20.52;3.00;;;3.20;99.90;;;;;;5002893;28;20041;-82
2022/01/06 01:18:58;;;;;;;16.38;2.60;;;3.60;99.90;;;;;;5001078;28;20049;-82
2022/01/06 01:21:28;;;;;;;19.60;2.90;;;3.20;99.90;;;;;;5000910;28;20512;-82
2022/01/06 01:23:55;;;;;;;18.40;2.85;;;3.10;99.90;;;;;;5016224;28;20081;-82
2022/01/06 01:26:22;;;;;;;17.67;2.97;;;3.10;99.90;;;;;;5016030;28;20053;-82
2022/01/06 01:28:50;;;;;;;19.55;2.97;;;3.20;99.90;;;;;;5017015;28;20030;-82
2022/01/06 01:33:43;;;;;;;19.10;3.00;;;2.90;99.90;;;;;;5000612;28;20044;-82
2022/01/06 01:36:10;;;;;;;15.60;2.55;;;2.90;99.90;;;;;;5000098;28;20039;-82
2022/01/06 01:38:37;;;;;;;17.70;2.63;;;2.80;99.90;;;;;;5016595;28;20091;-82
2022/01/06 01:41:07;;;;;;;16.13;2.70;;;2.80;99.90;;;;;;5015368;28;20047;-82
2022/01/06 01:43:33;;;;;;;14.23;2.50;;;2.70;99.90;;;;;;5000458;28;20072;-82
2022/01/06 01:46:08;;;;;;;15.98;2.67;;;2.60;99.90;;;;;;5016721;28;20378;-82
2022/01/06 01:48:37;;;;;;;19.83;3.00;;;2.60;99.90;;;;;;5000112;28;20049;-82
2022/01/06 01:51:03;;;;;;;17.73;3.00;;;2.60;99.90;;;;;;5000471;28;20440;-83
2022/01/06 01:53:29;;;;;;;17.50;2.92;;;2.50;99.90;;;;;;5016285;28;20037;-83
2022/01/06 01:55:55;;;;;;;15.57;3.08;;;2.50;99.90;;;;;;5015197;28;20039;-83
2022/01/06 01:58:21;;;;;;;17.73;2.75;;;2.40;99.90;;;;;;5015955;28;20110;-83
2022/01/06 02:00:47;;;;;;;19.73;2.97;;;2.40;99.90;;;;;;4999770;28;20037;-83
2022/01/06 02:03:13;;;;;;;19.45;3.30;;;2.40;99.90;;;;;;4999874;28;20051;-83
2022/01/06 02:05:38;;;;;;;18.60;2.80;;;2.30;99.90;;;;;;4999560;28;20041;-82
2022/01/06 02:08:05;;;;;;;15.48;2.50;;;2.30;99.90;;;;;;4999730;28;20413;-82
2022/01/06 02:10:32;;;;;;;16.05;2.85;;;2.30;99.90;;;;;;4998781;28;20426;-82
2022/01/06 02:13:00;;;;;;;14.00;2.70;;;2.90;99.90;;;;;;5016008;28;20040;-82
2022/01/06 02:15:27;;;;;;;16.73;2.50;;;2.40;99.90;;;;;;5000303;28;20505;-82
2022/01/06 02:17:53;;;;;;;18.10;3.05;;;2.60;99.90;;;;;;5016186;28;20052;-82
2022/01/06 02:20:21;;;;;;;17.10;2.58;;;2.30;99.90;;;;;;4998967;28;20041;-82
2022/01/06 02:22:48;;;;;;;19.88;2.90;;;2.20;99.90;;;;;;4999924;28;20050;-82
2022/01/06 02:25:23;;;;;;;15.00;2.80;;;2.60;99.90;;;;;;5015282;28;20489;-82
2022/01/06 02:27:53;;;;;;;15.70;2.80;;;2.20;99.90;;;;;;5016079;28;20077;-82
2022/01/06 02:30:21;;;;;;;20.02;3.03;;;2.60;99.90;;;;;;5015264;28;20053;-82
2022/01/06 02:32:47;;;;;;;19.67;2.80;;;2.10;99.90;;;;;;5015729;28;20041;-82
2022/01/06 02:35:16;;;;;;;17.73;2.90;;;2.00;99.90;;;;;;5015291;28;20084;-82
2022/01/06 02:37:42;;;;;;;15.73;2.80;;;2.00;99.90;;;;;;5015668;28;20033;-82
2022/01/06 02:40:10;;;;;;;18.25;2.83;;;2.00;99.90;;;;;;4999007;28;20041;-82
2022/01/06 02:42:43;;;;;;;20.77;3.10;;;2.00;99.90;;;;;;4999095;28;20072;-82
2022/01/06 02:45:10;;;;;;;15.23;3.17;;;2.00;99.90;;;;;;4999171;28;20042;-82
2022/01/06 02:47:36;;;;;;;18.58;3.15;;;2.00;99.90;;;;;;5015168;28;20129;-82
2022/01/06 02:50:03;;;;;;;14.85;2.67;;;1.90;99.90;;;;;;4982970;28;20475;-82
2022/01/06 02:52:28;;;;;;;15.40;2.65;;;1.90;99.90;;;;;;5015620;28;20076;-82
2022/01/06 02:54:54;;;;;;;15.85;2.70;;;1.90;99.90;;;;;;5015304;28;20069;-82
2022/01/06 02:57:20;;;;;;;19.65;3.25;;;1.90;99.90;;;;;;5014830;28;20560;-82
2022/01/06 02:59:46;;;;;;;16.48;3.05;;;2.00;99.90;;;;;;4982944;28;20045;-82
2022/01/06 03:02:11;;;;;;;18.95;3.10;;;1.90;99.90;;;;;;4983078;28;20489;-82
2022/01/06 03:04:37;;;;;;;15.98;2.58;;;1.90;99.90;;;;;;4999079;28;20095;-82
2022/01/06 03:07:03;;;;;;;16.70;2.80;;;1.90;99.90;;;;;;4998508;28;20037;-82
2022/01/06 03:09:37;;;;;;;18.23;2.67;;;1.90;99.90;;;;;;4985527;28;20397;-82
2022/01/06 03:12:06;;;;;;;19.35;3.35;;;1.80;99.90;;;;;;4988285;28;20042;-82
2022/01/06 03:14:32;;;;;;;15.98;2.75;;;1.80;99.90;;;;;;5019179;28;20041;-82
2022/01/06 03:16:58;;;;;;;13.77;2.60;;;1.80;99.90;;;;;;5003108;28;20041;-82
2022/01/06 03:19:24;;;;;;;19.65;3.05;;;2.60;99.90;;;;;;5002812;28;20052;-82
2022/01/06 03:21:50;;;;;;;13.50;2.70;;;1.90;99.90;;;;;;5002565;28;20400;-82
2022/01/06 03:24:16;;;;;;;17.90;2.63;;;1.90;99.90;;;;;;5002589;28;20037;-82
2022/01/06 03:26:42;;;;;;;21.55;3.33;;;1.90;99.90;;;;;;4985745;28;20048;-82
2022/01/06 03:29:08;;;;;;;19.30;2.90;;;1.90;99.90;;;;;;5019056;28;20049;-82
2022/01/06 03:31:34;;;;;;;20.90;3.58;;;1.80;99.90;;;;;;5018579;28;20053;-82
2022/01/06 03:33:59;;;;;;;15.55;2.80;;;1.80;99.90;;;;;;5002549;28;20464;-82
2022/01/06 03:36:25;;;;;;;20.88;3.08;;;1.90;99.90;;;;;;5002304;28;20140;-82
2022/01/06 03:38:51;;;;;;;16.75;3.05;;;1.80;99.90;;;;;;5018903;28;20045;-82
2022/01/06 03:41:17;;;;;;;23.73;3.38;;;1.80;99.90;;;;;;5001494;28;20046;-82
2022/01/06 03:43:43;;;;;;;24.35;3.40;;;1.80;99.90;;;;;;5002634;28;20129;-82
2022/01/06 03:46:08;;;;;;;19.67;3.30;;;1.80;99.90;;;;;;5002432;28;20046;-82
2022/01/06 03:48:34;;;;;;;21.58;3.13;;;1.90;99.90;;;;;;5002424;28;20048;-83
2022/01/06 03:51:00;;;;;;;18.17;3.20;;;2.50;99.90;;;;;;4986264;28;20501;-83
2022/01/06 03:53:26;;;;;;;17.38;3.17;;;1.90;99.90;;;;;;5002314;28;20041;-83
2022/01/06 03:55:51;;;;;;;20.02;3.03;;;1.90;99.90;;;;;;5001566;28;20485;-82
2022/01/06 03:58:17;;;;;;;16.15;2.70;;;1.90;99.90;;;;;;5002079;28;20069;-82
2022/01/06 04:00:43;;;;;;;19.77;3.03;;;2.00;99.90;;;;;;4985774;28;20056;-82
2022/01/06 04:03:09;;;;;;;19.38;3.35;;;2.10;99.90;;;;;;5002352;28;20037;-82
2022/01/06 04:05:34;;;;;;;19.83;3.10;;;2.10;99.90;;;;;;4985842;28;20037;-82
2022/01/06 04:08:01;;;;;;;22.98;3.45;;;2.10;99.90;;;;;;4985784;28;20045;-82
2022/01/06 04:10:27;;;;;;;23.20;3.05;;;2.10;99.90;;;;;;4984592;28;20042;-82
2022/01/06 04:12:52;;;;;;;18.60;3.10;;;2.00;99.90;;;;;;5001967;28;20489;-82
2022/01/06 04:15:19;;;;;;;17.35;2.90;;;1.90;99.90;;;;;;5001594;28;20124;-82
2022/01/06 04:17:44;;;;;;;15.73;2.63;;;1.90;99.90;;;;;;5018124;28;20041;-82
2022/01/06 04:20:12;;;;;;;18.15;2.72;;;2.60;99.90;;;;;;5018170;28;20095;-82
2022/01/06 04:22:38;;;;;;;15.63;2.80;;;2.60;99.90;;;;;;5001909;28;20473;-82
2022/01/06 04:25:05;;;;;;;13.75;2.60;;;1.80;99.90;;;;;;5001593;28;20041;-82
2022/01/06 04:27:31;;;;;;;16.48;2.80;;;1.80;99.90;;;;;;5000984;28;20045;-82
2022/01/06 04:29:57;;;;;;;17.80;3.00;;;1.70;99.90;;;;;;5001321;28;20060;-82
2022/01/06 04:32:22;;;;;;;15.23;2.67;;;1.70;99.90;;;;;;5017705;28;20049;-82
2022/01/06 04:34:48;;;;;;;15.95;2.70;;;1.70;99.90;;;;;;5017814;28;20128;-82
2022/01/06 04:37:14;;;;;;;16.95;3.03;;;1.70;99.90;;;;;;5017871;28;20091;-82
2022/01/06 04:39:39;;;;;;;17.63;2.38;;;1.60;99.90;;;;;;5001434;28;20044;-82
2022/01/06 04:42:05;;;;;;;15.02;2.80;;;1.60;99.90;;;;;;5000327;28;20048;-82
2022/01/06 04:44:31;;;;;;;15.35;2.75;;;1.50;99.90;;;;;;5001448;28;20080;-83
2022/01/06 04:46:57;;;;;;;16.80;2.70;;;1.50;99.90;;;;;;5001400;28;20064;-82
2022/01/06 04:49:22;;;;;;;17.35;2.83;;;1.50;99.90;;;;;;5001526;28;20052;-82
2022/01/06 04:51:49;;;;;;;14.40;2.50;;;1.80;99.90;;;;;;5017314;28;20171;-82
2022/01/06 04:54:14;;;;;;;16.40;2.85;;;1.40;99.90;;;;;;5001262;28;20481;-82
2022/01/06 04:56:40;;;;;;;14.32;2.70;;;1.40;99.90;;;;;;5000365;28;20033;-82
2022/01/06 04:59:09;;;;;;;19.17;2.97;;;1.30;99.90;;;;;;4997668;28;20034;-82
2022/01/06 05:01:36;;;;;;;15.45;2.72;;;1.40;99.90;;;;;;4981314;28;20046;-82
2022/01/06 05:04:01;;;;;;;14.80;2.60;;;1.30;99.90;;;;;;4981724;28;20042;-82
2022/01/06 05:06:27;;;;;;;17.45;2.70;;;1.40;99.90;;;;;;4981219;28;20045;-82
2022/01/06 05:08:53;;;;;;;13.57;2.78;;;1.30;99.90;;;;;;4981043;28;20467;-82
2022/01/06 05:11:19;;;;;;;13.77;2.40;;;1.50;99.90;;;;;;4980420;28;20065;-82
2022/01/06 05:13:46;;;;;;;14.73;2.60;;;1.30;99.90;;;;;;4965265;28;20045;-82
2022/01/06 05:16:11;;;;;;;11.93;2.28;;;1.30;99.90;;;;;;5013586;28;20052;-82
2022/01/06 05:18:38;;;;;;;12.98;2.33;;;1.30;99.90;;;;;;4981471;28;20429;-82
2022/01/06 05:21:07;;;;;;;11.30;2.45;;;1.30;99.90;;;;;;4965178;28;20038;-82
2022/01/06 05:23:33;;;;;;;15.20;2.88;;;1.20;99.90;;;;;;4965370;28;20481;-82
2022/01/06 05:25:59;;;;;;;15.35;2.40;;;1.90;99.90;;;;;;4980221;28;20044;-82
2022/01/06 05:28:25;;;;;;;13.05;2.40;;;1.60;99.90;;;;;;4964956;28;20042;-82
2022/01/06 05:30:52;;;;;;;18.92;2.70;;;1.20;99.90;;;;;;4993191;28;20413;-84
2022/01/06 05:33:18;;;;;;;15.38;2.75;;;1.00;99.90;;;;;;5000610;28;20150;-83
2022/01/06 05:35:44;;;;;;;18.30;3.10;;;1.80;99.90;;;;;;4983667;28;20033;-83
2022/01/06 05:38:10;;;;;;;22.25;3.00;;;2.00;99.90;;;;;;4999977;28;20117;-83
2022/01/06 05:40:36;;;;;;;14.70;2.55;;;0.90;99.90;;;;;;4998818;28;20132;-83
2022/01/06 05:43:02;;;;;;;17.85;2.88;;;1.00;99.90;;;;;;5000607;28;20041;-83
2022/01/06 05:45:28;;;;;;;21.60;3.28;;;1.00;99.90;;;;;;4999094;28;20379;-83
2022/01/06 05:47:54;;;;;;;19.40;2.70;;;1.00;99.90;;;;;;5000985;28;20044;-83
2022/01/06 05:50:20;;;;;;;16.25;3.00;;;1.00;99.90;;;;;;5031988;28;20037;-83
2022/01/06 05:52:47;;;;;;;20.33;4.45;;;1.00;99.90;;;;;;4989060;28;20048;-83
2022/01/06 05:55:13;;;;;;;16.05;2.78;;;1.00;99.90;;;;;;4996319;28;20038;-83
2022/01/06 05:57:38;;;;;;;19.23;3.08;;;1.00;99.90;;;;;;5011193;28;20485;-83
2022/01/06 06:00:07;;;;;;;19.48;3.25;;;1.40;99.90;;;;;;4996861;28;20038;-83
2022/01/06 06:02:32;;;;;;;14.32;2.80;;;1.00;99.90;;;;;;4999629;28;20162;-83
2022/01/06 06:04:58;;;;;;;19.90;3.08;;;1.00;99.90;;;;;;4983523;28;20072;-83
2022/01/06 06:07:24;;;;;;;21.77;2.83;;;1.20;99.90;;;;;;4998147;28;20103;-83
2022/01/06 06:09:51;;;;;;;15.80;2.95;;;2.10;99.90;;;;;;5007748;28;20354;-83
2022/01/06 06:12:17;;;;;;;19.92;2.60;;;1.00;99.90;;;;;;4982547;28;20409;-83
2022/01/06 06:14:43;;;;;;;18.73;3.03;;;1.00;99.90;;;;;;4999199;28;20048;-83
2022/01/06 06:17:09;;;;;;;17.30;2.65;;;1.90;99.90;;;;;;4998858;28;20037;-82
2022/01/06 06:19:35;;;;;;;19.63;2.88;;;2.00;99.90;;;;;;5015423;28;20124;-82
2022/01/06 06:22:01;;;;;;;14.82;2.50;;;1.50;99.90;;;;;;4995134;28;20528;-83
2022/01/06 06:24:27;;;;;;;17.52;2.80;;;0.80;99.90;;;;;;4982935;28;20045;-84
2022/01/06 06:26:53;;;;;;;16.20;2.78;;;0.90;99.90;;;;;;4997039;28;20405;-84
2022/01/06 06:29:20;;;;;;;19.13;2.83;;;0.90;99.90;;;;;;5007675;28;20119;-83
2022/01/06 06:31:46;;;;;;;19.00;3.05;;;0.90;99.90;;;;;;5014942;28;20053;-83
2022/01/06 06:34:12;;;;;;;14.98;2.60;;;1.00;99.90;;;;;;4998981;28;20091;-83
2022/01/06 06:36:38;;;;;;;19.67;2.80;;;0.90;99.90;;;;;;4982932;28;20072;-83
2022/01/06 06:39:06;;;;;;;15.00;2.60;;;1.90;99.90;;;;;;4999218;28;20051;-83
2022/01/06 06:41:31;;;;;;;18.20;3.15;;;0.90;99.90;;;;;;5014891;28;20485;-83
2022/01/06 06:43:57;;;;;;;19.08;4.00;;;0.80;99.90;;;;;;4982225;28;20042;-83
2022/01/06 06:46:23;;;;;;;21.27;4.00;;;0.80;99.90;;;;;;4999096;28;20481;-83
2022/01/06 06:48:48;;;;;;;18.63;4.47;;;0.70;99.90;;;;;;4969047;28;20396;-84
2022/01/06 06:51:15;;;;;;;16.30;3.85;;;0.80;99.90;;;;;;4982035;28;20033;-83
2022/01/06 06:53:42;;;;;;;17.08;3.75;;;0.70;99.90;;;;;;5012347;28;20095;-83
2022/01/06 06:56:08;;;;;;;19.35;3.50;;;0.70;99.90;;;;;;4995978;28;20037;-83
2022/01/06 06:58:33;;;;;;;18.65;3.13;;;0.80;99.90;;;;;;4987623;28;20436;-83
2022/01/06 07:00:59;;;;;;;16.38;3.60;;;0.90;99.90;;;;;;4982124;28;20033;-83
2022/01/06 07:03:25;;;;;;;15.05;3.15;;;0.80;99.90;;;;;;4998282;28;20119;-83
2022/01/06 07:05:51;;;;;;;19.95;3.35;;;0.80;99.90;;;;;;5015089;28;20091;-83
2022/01/06 07:08:17;;;;;;;18.90;3.15;;;0.60;99.90;;;;;;4983137;28;20033;-83
2022/01/06 07:10:43;;;;;;;18.65;3.22;;;0.60;99.90;;;;;;4981856;28;20042;-83
2022/01/06 07:13:09;;;;;;;19.90;3.05;;;0.60;99.90;;;;;;5004950;28;20041;-83
2022/01/06 07:15:41;;;;;;;15.30;2.92;;;0.60;99.90;;;;;;5031750;28;20444;-83
2022/01/06 07:18:07;;;;;;;15.93;3.00;;;0.60;99.90;;;;;;5031843;28;20041;-83
2022/01/06 07:20:33;;;;;;;22.02;3.20;;;1.60;99.90;;;;;;5015012;28;20049;-83
2022/01/06 07:22:58;;;;;;;16.73;2.92;;;0.50;99.90;;;;;;5014682;28;20129;-83
2022/01/06 07:25:25;;;;;;;18.38;3.15;;;0.70;99.90;;;;;;5030899;28;20499;-83
2022/01/06 07:27:50;;;;;;;17.42;3.10;;;0.50;99.90;;;;;;5015245;28;20045;-83
2022/01/06 07:30:16;;;;;;;17.83;2.80;;;0.50;99.90;;;;;;5009285;28;20052;-83
2022/01/06 07:32:47;;;;;;;20.27;3.40;;;0.50;99.90;;;;;;4997063;28;20041;-83
2022/01/06 07:35:14;;;;;;;14.77;2.47;;;0.40;99.90;;;;;;5006449;28;20405;-83
2022/01/06 07:37:40;;;;;;;18.08;3.00;;;0.40;99.90;;;;;;4995557;28;20481;-83
2022/01/06 07:40:07;;;;;;;17.75;3.70;;;0.50;99.90;;;;;;4995588;28;20044;-83
2022/01/06 07:42:33;;;;;;;18.75;4.22;;;0.40;99.90;;;;;;5010825;28;20880;-83
2022/01/06 07:45:00;;;;;;;20.25;3.70;;;1.30;99.90;;;;;;5015662;28;20037;-83
2022/01/06 07:47:28;;;;;;;18.77;3.58;;;0.40;99.90;;;;;;5003600;28;20045;-82
2022/01/06 07:49:54;;;;;;;19.02;3.17;;;0.40;99.90;;;;;;4983138;28;20038;-83
2022/01/06 07:52:21;;;;;;;16.98;3.42;;;0.40;99.90;;;;;;4998009;28;20563;-83
2022/01/06 07:54:48;;;;;;;22.10;3.55;;;0.40;99.90;;;;;;4981481;28;20045;-84
2022/01/06 07:57:14;;;;;;;17.98;4.57;;;0.60;99.90;;;;;;4999343;28;20037;-83
2022/01/06 07:59:40;;;;;;;20.50;3.90;;;0.60;99.90;;;;;;5009684;28;20121;-83
2022/01/06 08:02:08;;;;;;;18.73;4.25;;;0.50;99.90;;;;;;4980775;28;20512;-83
2022/01/06 08:04:34;;;;;;;20.35;4.30;;;0.60;99.90;;;;;;4969080;28;20508;-83
2022/01/06 08:07:00;;;;;;;20.80;4.10;;;0.50;99.90;;;;;;5004469;28;20544;-84
2022/01/06 08:09:26;;;;;;;16.80;3.95;;;0.50;99.90;;;;;;5031494;28;20055;-83
2022/01/06 08:11:52;;;;;;;18.58;4.13;;;0.50;99.90;;;;;;5024024;28;20408;-83
2022/01/06 08:14:18;;;;;;;19.17;4.60;;;0.60;99.90;;;;;;5032439;28;20029;-83
2022/01/06 08:16:44;;;;;;;21.63;4.20;;;0.80;99.90;;;;;;5029202;28;20511;-83
2022/01/06 08:19:10;;;;;;;19.13;4.10;;;0.70;99.90;;;;;;5035496;28;20100;-84
2022/01/06 08:21:36;;;;;;;18.23;3.67;;;0.70;99.90;;;;;;5019897;28;20060;-84
2022/01/06 08:24:01;;;;;;;18.35;3.90;;;1.30;99.90;;;;;;5002430;28;20036;-83
2022/01/06 08:26:27;;;;;;;17.73;3.70;;;0.90;99.90;;;;;;5008511;28;20041;-83
2022/01/06 08:28:53;;;;;;;20.17;3.78;;;0.90;99.90;;;;;;5019146;28;20076;-83
2022/01/06 08:31:19;;;;;;;23.55;3.92;;;0.90;99.90;;;;;;4991338;28;20528;-84
2022/01/06 08:33:45;;;;;;;15.45;3.20;;;1.00;99.90;;;;;;5013929;28;20112;-83
2022/01/06 08:36:11;;;;;;;22.73;3.70;;;1.20;99.90;;;;;;5013668;28;20449;-83
2022/01/06 08:38:37;;;;;;;25.77;3.60;;;1.20;99.90;;;;;;5039048;28;20121;-84
2022/01/06 08:41:03;;;;;;;19.58;4.80;;;1.30;99.90;;;;;;5015047;28;20125;-84
2022/01/06 08:43:29;;;;;;;24.70;5.97;;;1.70;99.90;;;;;;5028780;28;20041;-84
2022/01/06 08:45:56;;;;;;;25.95;6.40;;;1.50;99.90;;;;;;5011216;28;20048;-84
2022/01/06 08:48:23;;;;;;;24.92;6.95;;;1.60;99.90;;;;;;4996738;28;20446;-84
2022/01/06 08:50:49;;;;;;;26.88;7.07;;;2.40;99.90;;;;;;5015271;28;20048;-84
2022/01/06 08:53:15;;;;;;;22.83;5.55;;;1.90;99.90;;;;;;5014270;28;20501;-84
2022/01/06 08:55:41;;;;;;;22.10;4.32;;;2.20;99.90;;;;;;5016502;28;20032;-83
2022/01/06 08:58:07;;;;;;;19.40;3.80;;;2.30;99.90;;;;;;5033530;28;20481;-83
2022/01/06 09:00:33;;;;;;;22.45;3.70;;;2.40;99.90;;;;;;5002457;28;20045;-83
2022/01/06 09:02:59;;;;;;;20.75;4.00;;;2.50;99.90;;;;;;5001243;28;20131;-83
2022/01/06 09:05:25;;;;;;;20.08;4.30;;;2.80;99.90;;;;;;4993296;28;20080;-83
2022/01/06 09:07:51;;;;;;;21.10;4.40;;;3.00;99.90;;;;;;5007382;28;20045;-85
2022/01/06 09:10:18;;;;;;;20.13;4.10;;;3.00;99.90;;;;;;5005068;28;20041;-84
2022/01/06 09:12:45;;;;;;;22.27;4.05;;;3.00;99.90;;;;;;5011946;28;20415;-84
2022/01/06 09:15:11;;;;;;;24.13;3.80;;;3.20;99.90;;;;;;5010522;28;20041;-84
2022/01/06 09:17:38;;;;;;;16.60;4.00;;;3.30;99.90;;;;;;5024048;28;20482;-83
2022/01/06 09:20:06;;;;;;;20.95;4.65;;;3.30;99.90;;;;;;4996765;28;20036;-84
2022/01/06 09:22:32;;;;;;;20.40;4.20;;;3.40;99.90;;;;;;4995829;28;20045;-84
2022/01/06 09:24:58;;;;;;;18.90;3.50;;;3.40;99.90;;;;;;4996876;28;20049;-84
2022/01/06 09:27:24;;;;;;;15.23;3.28;;;3.50;99.90;;;;;;5009902;28;20385;-84
2022/01/06 09:29:53;;;;;;;19.58;3.50;;;3.40;99.90;;;;;;5012493;28;20037;-84
2022/01/06 09:32:19;;;;;;;15.57;3.00;;;3.40;99.90;;;;;;5014384;28;20045;-84
2022/01/06 09:34:45;;;;;;;18.23;3.50;;;3.30;99.90;;;;;;5012417;28;20396;-84
2022/01/06 09:37:11;;;;;;;18.83;3.15;;;3.20;99.90;;;;;;5027794;28;20037;-84
2022/01/06 09:39:37;;;;;;;18.08;3.30;;;3.30;99.90;;;;;;5009796;28;20041;-84
2022/01/06 09:42:03;;;;;;;18.50;3.25;;;3.30;99.90;;;;;;4998242;28;20076;-84
2022/01/06 09:44:29;;;;;;;19.92;3.22;;;3.20;99.90;;;;;;5013155;28;20454;-84
2022/01/06 09:46:55;;;;;;;19.77;3.47;;;3.20;99.90;;;;;;4995692;28;20025;-84
2022/01/06 09:49:22;;;;;;;22.05;3.33;;;4.00;99.90;;;;;;5031118;28;20200;-83
2022/01/06 09:51:47;;;;;;;15.82;3.70;;;3.30;99.90;;;;;;5013302;28;20474;-83
2022/01/06 09:54:13;;;;;;;19.13;3.70;;;3.30;99.90;;;;;;4999446;28;20090;-83
2022/01/06 09:56:39;;;;;;;20.85;3.92;;;3.70;99.90;;;;;;4993630;28;20480;-83
2022/01/06 09:59:05;;;;;;;22.25;3.83;;;3.50;99.90;;;;;;5011944;28;20443;-83
2022/01/06 10:01:31;;;;;;;17.75;2.90;;;3.50;99.90;;;;;;5010762;28;20083;-84
2022/01/06 10:03:56;;;;;;;18.30;3.75;;;4.00;99.90;;;;;;5036241;28;20409;-84
2022/01/06 10:06:24;;;;;;;22.40;3.90;;;3.60;99.90;;;;;;4996766;28;20067;-83
2022/01/06 10:08:59;;;;;;;18.65;3.65;;;3.50;99.90;;;;;;5014435;28;20120;-83
2022/01/06 10:11:43;;;;;;;21.92;3.85;;;3.50;99.90;;;;;;5014918;28;20084;-84
2022/01/06 10:14:16;;;;;;;19.27;3.53;;;3.60;99.90;;;;;;4999554;28;20611;-83
2022/01/06 10:16:50;;;;;;;19.38;3.50;;;3.60;99.90;;;;;;5034016;28;20041;-83
2022/01/06 10:19:16;;;;;;;17.75;3.50;;;3.60;99.90;;;;;;5014867;28;20040;-83
2022/01/06 10:21:45;;;;;;;18.08;3.60;;;3.70;99.90;;;;;;5014688;28;20045;-82
2022/01/06 10:24:15;;;;;;;17.05;3.85;;;3.80;99.90;;;;;;5026890;28;20520;-82
2022/01/06 10:26:58;;;;;;;21.83;4.20;;;3.80;99.90;;;;;;5017640;28;20049;-82
2022/01/06 10:29:29;;;;;;;20.40;3.67;;;3.80;99.90;;;;;;5016797;28;20091;-82
2022/01/06 10:32:06;;;;;;;17.80;3.60;;;3.90;99.90;;;;;;5013793;28;20045;-82
2022/01/06 10:34:33;;;;;;;17.35;3.78;;;3.90;99.90;;;;;;5006436;28;20042;-82
2022/01/06 10:37:00;;;;;;;19.88;3.88;;;4.00;99.90;;;;;;5005415;28;20045;-82
2022/01/06 10:39:29;;;;;;;15.55;4.30;;;4.00;99.90;;;;;;5015126;28;20055;-83
2022/01/06 10:42:04;;;;;;;18.75;4.20;;;4.10;99.90;;;;;;4995802;28;20040;-83
2022/01/06 10:44:30;;;;;;;17.95;3.95;;;4.10;99.90;;;;;;5030189;28;20045;-83
2022/01/06 10:46:57;;;;;;;19.15;4.03;;;4.60;99.90;;;;;;5003169;28;20509;-83
2022/01/06 10:49:22;;;;;;;24.27;4.22;;;4.10;99.90;;;;;;5009647;28;20397;-83
2022/01/06 10:51:51;;;;;;;21.73;3.95;;;4.10;99.90;;;;;;5028040;28;20060;-83
2022/01/06 10:54:23;;;;;;;22.55;4.03;;;4.10;99.90;;;;;;4997362;28;20392;-83
2022/01/06 10:57:18;;;;;;;20.93;4.40;;;4.10;99.90;;;;;;5005597;28;20454;-82
2022/01/06 10:59:44;;;;;;;19.67;4.30;;;4.10;99.90;;;;;;5006100;28;20056;-82
2022/01/06 11:02:24;;;;;;;19.30;4.32;;;4.20;99.90;;;;;;5011811;28;20544;-82
2022/01/06 11:04:50;;;;;;;20.15;3.65;;;4.20;99.90;;;;;;4985828;28;20084;-82
2022/01/06 11:07:16;;;;;;;20.45;4.10;;;4.20;99.90;;;;;;5016127;28;20143;-82
2022/01/06 11:09:47;;;;;;;20.38;3.85;;;4.30;99.90;;;;;;5013186;28;20042;-82
2022/01/06 11:12:27;;;;;;;21.55;3.97;;;4.30;99.90;;;;;;5014343;28;20064;-82
2022/01/06 11:14:53;;;;;;;19.50;4.00;;;4.40;99.90;;;;;;5034605;28;20063;-83
2022/01/06 11:17:21;;;;;;;18.38;3.80;;;4.50;99.90;;;;;;4992457;28;20041;-83
2022/01/06 11:19:52;;;;;;;23.83;4.35;;;4.40;99.90;;;;;;4991630;28;20045;-83
2022/01/06 11:22:24;;;;;;;25.73;4.40;;;4.40;99.90;;;;;;5015904;28;20041;-83
2022/01/06 11:24:54;;;;;;;19.38;4.47;;;4.50;99.90;;;;;;5005671;28;20040;-83
2022/01/06 11:27:36;;;;;;;24.38;4.03;;;4.60;99.90;;;;;;5027111;28;20051;-83
2022/01/06 11:30:09;;;;;;;26.35;4.03;;;4.60;99.90;;;;;;5017982;28;20095;-83
2022/01/06 11:32:35;;;;;;;17.23;4.00;;;4.70;99.90;;;;;;5015962;28;20048;-83
2022/01/06 11:35:15;;;;;;;22.02;3.90;;;4.70;99.90;;;;;;5032017;28;20052;-82
2022/01/06 11:37:50;;;;;;;21.15;3.78;;;4.80;99.90;;;;;;5016742;28;20064;-82
2022/01/06 11:40:28;;;;;;;19.02;3.67;;;4.80;99.90;;;;;;5033134;28;20095;-82
2022/01/06 11:42:55;;;;;;;19.40;4.10;;;4.80;99.90;;;;;;5012905;28;20041;-82
2022/01/06 11:45:21;;;;;;;20.10;4.05;;;4.90;99.90;;;;;;5014290;28;20119;-82
2022/01/06 11:47:57;;;;;;;19.33;4.13;;;4.90;99.90;;;;;;5026262;28;20500;-82
2022/01/06 11:50:26;;;;;;;17.88;3.88;;;4.90;99.90;;;;;;5014070;28;20049;-82
2022/01/06 11:53:00;;;;;;;17.67;3.83;;;4.90;99.90;;;;;;5033154;28;20049;-82
2022/01/06 11:55:34;;;;;;;20.27;4.25;;;5.60;99.90;;;;;;5015358;28;20439;-83
2022/01/06 11:58:10;;;;;;;21.15;4.10;;;4.90;99.90;;;;;;5020601;28;20029;-82
2022/01/06 12:00:39;;;;;;;19.33;4.13;;;4.90;99.90;;;;;;5020038;28;20049;-83
2022/01/06 12:03:13;;;;;;;24.02;3.88;;;5.00;99.90;;;;;;5020264;28;20083;-82
2022/01/06 12:05:48;;;;;;;18.33;3.70;;;5.00;99.90;;;;;;4992457;28;20128;-82
2022/01/06 12:08:19;;;;;;;20.10;3.83;;;5.10;99.90;;;;;;5020677;28;20098;-82
2022/01/06 12:10:49;;;;;;;21.65;4.43;;;5.10;99.90;;;;;;5034902;28;20084;-83
2022/01/06 12:13:16;;;;;;;20.00;4.03;;;5.20;99.90;;;;;;5032225;28;20075;-83
2022/01/06 12:15:52;;;;;;;21.00;4.00;;;5.20;99.90;;;;;;5019392;28;20037;-82
2022/01/06 12:18:23;;;;;;;23.27;3.80;;;5.30;99.90;;;;;;5017229;28;20120;-82
2022/01/06 12:20:49;;;;;;;16.70;3.30;;;5.30;99.90;;;;;;5014038;28;20535;-82
2022/01/06 12:23:17;;;;;;;18.60;3.80;;;5.40;99.90;;;;;;5018744;28;20315;-82
2022/01/06 12:26:00;;;;;;;21.35;4.13;;;5.40;99.90;;;;;;5015156;28;20049;-82
2022/01/06 12:28:28;;;;;;;18.63;3.88;;;5.50;99.90;;;;;;5029359;28;20113;-82
2022/01/06 12:31:19;;;;;;;17.42;3.85;;;5.50;99.90;;;;;;5027589;28;20053;-82
2022/01/06 12:33:48;;;;;;;21.25;3.90;;;5.50;99.90;;;;;;5047458;28;20040;-83
2022/01/06 12:36:18;;;;;;;21.50;4.05;;;5.60;99.90;;;;;;5015752;28;20506;-82
2022/01/06 12:38:43;;;;;;;18.95;3.40;;;5.60;99.90;;;;;;5029958;28;20500;-82
2022/01/06 12:41:11;;;;;;;21.33;3.83;;;5.60;99.90;;;;;;5028609;28;20077;-83
2022/01/06 12:43:38;;;;;;;21.58;4.13;;;5.60;99.90;;;;;;5013261;28;20057;-83
2022/01/06 12:46:04;;;;;;;25.02;4.13;;;5.60;99.90;;;;;;5011415;28;20098;-82
2022/01/06 12:48:38;;;;;;;21.30;3.85;;;5.60;99.90;;;;;;5034699;28;20053;-82
2022/01/06 12:51:04;;;;;;;20.67;4.10;;;5.60;99.90;;;;;;5013363;28;20043;-82
2022/01/06 12:53:37;;;;;;;23.55;4.13;;;5.60;99.90;;;;;;5034307;28;20041;-82
2022/01/06 12:56:03;;;;;;;19.05;3.70;;;5.60;99.90;;;;;;5013897;28;20369;-82
2022/01/06 12:58:32;;;;;;;17.05;3.45;;;5.60;99.90;;;;;;5015881;28;20098;-82
2022/01/06 13:01:09;;;;;;;14.45;3.30;;;5.60;99.90;;;;;;5013375;28;20049;-82